Flight Track Log - Related Links

Times and Time Zones

All times are in EST time to prevent confusion due to time zone crossing. See the N749SS flight status page for this flight to view local times or setup timezone preferences in your user account.

Time Position Orientation Groundspeed Altitude Reporting Facility
EST Latitude Longitude Course Direction KTS MPH feet Rate Location/Type
Wed 12:20:39 PM 26.2644 -81.7331 North 235 270 7,100  Level Miami Center
Wed 12:21:39 PM 26.3417 -81.7339 359° North 256 295 10,000 2,550 Climbing Miami Center
Wed 12:22:39 PM 26.4333 -81.7353 359° North 302 348 12,200 2,000 Climbing Miami Center
Wed 12:23:39 PM 26.5294 -81.7369 359° North 343 395 14,000 2,000 Climbing Miami Center
Wed 12:24:39 PM 26.6378 -81.7392 359° North 369 425 16,200 2,100 Climbing Miami Center
Wed 12:25:00 PM 26.8724 -81.7031 North  Level Estimated
Wed 12:25:39 PM 26.7506 -81.7414 359° North 391 450 18,200  Level Miami Center
Wed 12:26:39 PM 26.8694 -81.7442 359° North 408 470 19,900 1,200 Climbing Miami Center
Wed 12:27:39 PM 26.9944 -81.7469 359° North 427 491 20,600 1,400 Climbing Miami Center
Wed 12:28:39 PM 27.1228 -81.7806 347° North 461 531 22,700 1,950 Climbing Miami Center
Wed 12:29:39 PM 27.2467 -81.8208 344° North 466 536 24,500 2,000 Climbing Miami Center
Wed 12:30:39 PM 27.3828 -81.8711 342° North 477 549 26,700 2,000 Climbing Miami Center
Wed 12:31:39 PM 27.5086 -81.9139 343° North 472 543 28,500 1,750 Climbing Miami Center
Wed 12:32:39 PM 27.6300 -81.9569 343° North 467 537 30,200 1,850 Climbing Miami Center
Wed 12:33:39 PM 27.7436 -81.9900 346° North 462 532 32,200 1,950 Climbing Miami Center
Wed 12:34:39 PM 27.8561 -81.9386 22° Northeast 426 490 34,100 1,950 Climbing Miami Center
Wed 12:35:39 PM 27.9508 -81.8561 38° Northeast 408 470 36,100 1,850 Climbing Miami Center
Wed 12:36:39 PM 28.0497 -81.7711 37° Northeast 423 487 37,800 1,400 Climbing Miami Center
Wed 12:37:39 PM 28.1464 -81.6928 36° Northeast 428 493 38,900 600 Climbing Miami Center
Wed 12:38:39 PM 28.2719 -81.6747 North 428 493 39,000 50 Climbing Miami Center
Wed 12:39:39 PM 28.4017 -81.6661 North 441 507 39,000  Level Miami Center
Wed 12:41:06 PM 28.5967 -81.6514 North 503 579 39,000  Level Jacksonville Center
Wed 12:42:06 PM 28.7281 -81.6425 North 481 554 39,000  Level Jacksonville Center
Wed 12:43:05 PM 28.8553 -81.6339 North 466 536 39,000  Level Jacksonville Center
Wed 12:44:06 PM 28.9867 -81.6225 North 461 531 39,000  Level Jacksonville Center
Wed 12:45:05 PM 29.1139 -81.6139 North 461 531 39,000  Level Jacksonville Center
Wed 12:46:06 PM 29.2433 -81.6003 North 461 531 39,000  Level Jacksonville Center
Wed 12:47:06 PM 29.3747 -81.5914 North 461 531 39,000  Level Jacksonville Center
Wed 12:48:06 PM 29.5061 -81.5800 North 461 531 39,000  Level Jacksonville Center
Wed 12:49:06 PM 29.6333 -81.5689 North 461 531 39,000  Level Jacksonville Center
Wed 12:50:06 PM 29.7647 -81.5575 North 461 531 39,000  Level Jacksonville Center
Wed 12:51:05 PM 29.9086 -81.5411 North 461 531 39,000  Level Jacksonville Center
Wed 12:52:06 PM 30.0378 -81.5272 North 461 531 39,000  Level Jacksonville Center
Wed 12:53:06 PM 30.1650 -81.5111 North 461 531 39,000  Level Jacksonville Center
Wed 12:54:06 PM 30.2964 -81.4947 North 461 531 39,000  Level Jacksonville Center
Wed 12:55:05 PM 30.4258 -81.4833 North 461 531 39,000  Level Jacksonville Center
Wed 12:56:05 PM 30.5531 -81.4694 North 461 531 39,000  Level Jacksonville Center
Wed 12:57:06 PM 30.6844 -81.4578 North 461 531 39,000  Level Jacksonville Center
Wed 12:58:06 PM 30.8117 -81.4436 North 461 531 39,000  Level Jacksonville Center
Wed 12:59:05 PM 30.9408 -81.4319 North 461 531 39,000  Level Jacksonville Center
Wed 01:00:06 PM 31.0703 -81.4178 North 461 531 39,000  Level Jacksonville Center
Wed 01:01:05 PM 31.2017 -81.4036 North 461 531 39,000  Level Jacksonville Center
Wed 01:02:06 PM 31.3331 -81.3894 North 463 533 39,000  Level Jacksonville Center
Wed 01:03:06 PM 31.4558 -81.3753 North 463 533 39,000  Level Jacksonville Center
Wed 01:04:06 PM 31.5747 -81.3611 North 458 527 39,000  Level Jacksonville Center
Wed 01:05:06 PM 31.7167 -81.3467 North 458 527 39,000  Level Jacksonville Center
Wed 01:06:06 PM 31.8458 -81.3322 North 458 527 39,000  Level Jacksonville Center
Wed 01:07:06 PM 31.9792 -81.3153 North 471 542 39,000  Level Jacksonville Center
Wed 01:08:05 PM 32.1083 -81.2933 North 471 542 39,000  Level Jacksonville Center
Wed 01:09:06 PM 32.2375 -81.2717 North 471 542 39,000  Level Jacksonville Center
Wed 01:10:06 PM 32.3667 -81.2494 North 465 535 39,000  Level Jacksonville Center
Wed 01:11:05 PM 32.5000 -81.2300 North 471 542 39,000  Level Jacksonville Center
Wed 01:12:05 PM 32.6272 -81.2078 North 471 542 39,000  Level Jacksonville Center
Wed 01:13:05 PM 32.7561 -81.1831 North 471 542 39,000  Level Jacksonville Center
Wed 01:14:05 PM 32.8875 -81.1608 North 471 542 39,000  Level Jacksonville Center
Wed 01:15:05 PM 33.0186 -81.1386 North 471 542 39,000  Level Jacksonville Center
Wed 01:16:06 PM 33.1478 -81.1186 North 466 536 39,000  Level Jacksonville Center
Wed 01:17:05 PM 33.2789 -81.0961 North 466 536 39,000  Level Jacksonville Center
Wed 01:18:05 PM 33.4100 -81.0736 North 466 536 39,000  Level Jacksonville Center
Wed 01:19:05 PM 33.5392 -81.0486 North 466 536 39,000  Level Jacksonville Center
Wed 01:20:05 PM 33.6703 -81.0258 North 466 536 39,000  Level Jacksonville Center
Wed 01:21:06 PM 33.8014 -81.0031 North 466 536 39,000  Level Jacksonville Center
Wed 01:22:05 PM 33.9283 -80.9803 North 466 536 39,000  Level Jacksonville Center
Wed 01:23:05 PM 34.0594 -80.9550 North 466 536 39,000  Level Jacksonville Center
Wed 01:24:05 PM 34.1883 -80.9344 North 466 536 39,000  Level Jacksonville Center
Wed 01:26:33 PM 34.5050 -80.8831 North 455 524 39,000  Level Atlanta Center
Wed 01:27:33 PM 34.6378 -80.8528 11° North 469 540 39,000  Level Atlanta Center
Wed 01:28:33 PM 34.7542 -80.8331 North 469 540 39,000  Level Atlanta Center
Wed 01:29:33 PM 34.8850 -80.8078 North 469 540 39,000  Level Atlanta Center
Wed 01:30:33 PM 35.0158 -80.7850 North 469 540 39,000  Level Atlanta Center
Wed 01:31:33 PM 35.1444 -80.7597 North 464 534 39,000  Level Atlanta Center
Wed 01:32:33 PM 35.2753 -80.7342 North 469 540 39,000  Level Atlanta Center
Wed 01:33:33 PM 35.4061 -80.7111 North 469 540 39,000  Level Atlanta Center
Wed 01:34:33 PM 35.5369 -80.6853 North 469 540 39,000  Level Atlanta Center
Wed 01:35:33 PM 35.6697 -80.6619 North 469 540 39,000  Level Atlanta Center
Wed 01:36:33 PM 35.8006 -80.6361 North 469 540 39,000  Level Atlanta Center
Wed 01:37:33 PM 35.9292 -80.6103 North 469 540 39,000  Level Atlanta Center
Wed 01:38:33 PM 36.0578 -80.5892 North 477 549 39,000  Level Atlanta Center
Wed 01:39:33 PM 36.2050 -80.5625 North 472 543 39,000  Level Atlanta Center
Wed 01:40:33 PM 36.3317 -80.5389 North 472 543 39,000  Level Atlanta Center
Wed 01:41:33 PM 36.4622 -80.5125 North 472 543 39,000  Level Atlanta Center
Wed 01:42:33 PM 36.5908 -80.4914 North 467 537 39,000  Level Atlanta Center
Wed 01:44:45 PM 36.8653 -80.4389 North 477 549 39,000  Level Washington Center
Wed 01:45:46 PM 36.9933 -80.4183 North 471 542 39,000  Level Washington Center
Wed 01:46:47 PM 37.1239 -80.3900 10° North 471 542 39,000  Level Washington Center
Wed 01:47:48 PM 37.2669 -80.3653 North 471 542 39,000  Level Washington Center
Wed 01:48:45 PM 37.3972 -80.3394 North 466 536 39,000  Level Washington Center
Wed 01:49:46 PM 37.5253 -80.3186 North 466 536 39,000  Level Washington Center
Wed 01:50:47 PM 37.6556 -80.2925 North 466 536 39,000  Level Washington Center
Wed 01:51:47 PM 37.7861 -80.2664 North 466 536 39,000  Level Washington Center
Wed 01:52:45 PM 37.9017 -80.2422 North 471 542 39,000  Level Washington Center
Wed 01:53:46 PM 38.0297 -80.2183 North 466 536 39,000  Level Washington Center
Wed 01:54:46 PM 38.1581 -80.1947 North 466 536 39,000  Level Washington Center
Wed 01:55:46 PM 38.2903 -80.1683 North 466 536 39,000  Level Washington Center
Wed 01:56:45 PM 38.4164 -80.1444 North 466 536 39,000  Level Washington Center
Wed 01:57:45 PM 38.5550 -80.1158 North 466 536 39,000  Level Washington Center
Wed 01:58:46 PM 38.6853 -80.0892 North 466 536 39,000  Level Washington Center
Wed 01:59:46 PM 38.8156 -80.0653 North 466 536 39,000  Level Washington Center
Wed 02:01:41 PM 39.0456 -80.0131 10° North 471 542 39,000  Level Cleveland Center
Wed 02:02:43 PM 39.1983 -79.9781 10° North 471 542 39,000  Level Cleveland Center
Wed 02:03:45 PM 39.3272 -79.9514 North 471 542 39,000  Level Cleveland Center
Wed 02:04:47 PM 39.4567 -79.9258 North 471 542 39,000  Level Cleveland Center
Wed 02:05:49 PM 39.5861 -79.8981 North 471 542 39,000  Level Cleveland Center
Wed 02:06:51 PM 39.7150 -79.8711 North 472 543 39,000  Level Cleveland Center
Wed 02:07:53 PM 39.8450 -79.8447 North 473 544 39,000  Level Cleveland Center
Wed 02:08:55 PM 40.0008 -79.8122 North 475 547 39,000  Level Cleveland Center
Wed 02:09:57 PM 40.1308 -79.7844 North 477 549 39,000  Level Cleveland Center
Wed 02:10:59 PM 40.2592 -79.7583 North 474 545 39,000  Level Cleveland Center
Wed 02:12:01 PM 40.3853 -79.7322 North 468 539 39,000  Level Cleveland Center
Wed 02:13:03 PM 40.5367 -79.6994 North 465 535 39,000  Level Cleveland Center
Wed 02:14:05 PM 40.6642 -79.6722 North 470 541 39,000 -96 Level Cleveland Center
Wed 02:15:08 PM 40.7908 -79.6456 North 464 534 38,800 -1,008 Descending Cleveland Center
Wed 02:16:10 PM 40.9178 -79.6194 North 465 535 36,900 -1,887 Descending Cleveland Center
Wed 02:17:12 PM 41.0428 -79.5919 North 459 528 34,900 -1,403 Descending Cleveland Center
Wed 02:18:14 PM 41.1997 -79.5586 North 475 547 34,000 -435 Descending Cleveland Center
Wed 02:19:16 PM 41.3319 -79.5297 North 481 554 34,000  Level Cleveland Center
Wed 02:20:18 PM 41.4764 -79.4986 North 492 566 34,000  Level Cleveland Center
Wed 02:21:20 PM 41.6139 -79.4672 10° North 499 574 34,000 -581 Level Cleveland Center
Wed 02:22:22 PM 41.7500 -79.4381 North 498 573 32,800 -1,306 Descending Cleveland Center
Wed 02:23:24 PM 41.8856 -79.4075 10° North 497 572 31,300 -1,500 Descending Cleveland Center
Wed 02:24:26 PM 42.0217 -79.3800 North 496 571 29,700 -1,742 Descending Cleveland Center
Wed 02:25:28 PM 42.1744 -79.3447 10° North 463 533 27,700 -1,694 Descending Cleveland Center
Wed 02:26:30 PM 42.2964 -79.3194 North 448 516 26,200 -1,452 Descending Cleveland Center
Wed 02:27:32 PM 42.4206 -79.2914 North 451 519 24,700 -1,536 Descending Cleveland Center
Wed 02:28:35 PM 42.5514 -79.2783 North 427 491 23,000 -1,488 Descending Cleveland Center
Wed 02:29:37 PM 42.6700 -79.2931 355° North 429 494 21,600 -1,403 Descending Cleveland Center
Wed 02:30:39 PM 42.8028 -79.3061 356° North 472 543 20,100 -1,452 Descending Cleveland Center
Wed 02:31:41 PM 42.9328 -79.3183 356° North 469 540 18,600 -1,565 Descending Cleveland Center
Wed 02:32:34 PM 43.0500 -79.3167 North 450 518 17,100 -1,593 Descending Toronto Center
Wed 02:33:34 PM 43.1667 -79.3167 360° North 450 518 15,600 -1,500 Descending Toronto Center
Wed 02:34:34 PM 43.2833 -79.3333 354° North 420 483 14,100 -1,500 Descending Toronto Center
Wed 02:35:34 PM 43.3667 -79.3833 336° Northwest 360 414 12,600 -1,400 Descending Toronto Center
Wed 02:36:34 PM 43.4500 -79.4333 336° Northwest 320 368 11,300 -1,400 Descending Toronto Center
Wed 02:37:34 PM 43.5333 -79.5000 330° Northwest 320 368 9,800 -1,700 Descending Toronto Center
Wed 02:38:34 PM 43.6000 -79.5333 340° North 300 345 7,900 -1,850 Descending Toronto Center
Wed 02:39:34 PM 43.6833 -79.5833 337° Northwest 290 334 6,100 -950 Descending Toronto Center
Wed 02:40:34 PM 43.7500 -79.5833 360° North 280 322 6,000 -350 Descending Toronto Center
Wed 02:41:34 PM 43.8333 -79.5667 North 260 299 5,400 -500 Descending Toronto Center
Wed 02:42:34 PM 43.8833 -79.5167 36° Northeast 270 311 5,000 -200 Descending Toronto Center
Wed 02:43:34 PM 43.9000 -79.4000 79° East 260 299 5,000 -50 Level Toronto Center
Wed 02:44:34 PM 43.8833 -79.3833 144° Southeast 180 207 4,900 -50 Descending Toronto Center
Wed 02:45:34 PM 43.8500 -79.3833 180° South 130 150 4,900 -50 Level Toronto Center
Wed 02:46:34 PM 43.8167 -79.4000 200° South 110 127 4,800 -450 Descending Toronto Center
Wed 02:47:34 PM 43.8000 -79.4500 245° Southwest 110 127 4,000 -700 Descending Toronto Center
Wed 02:48:34 PM 43.7833 -79.4667 216° Southwest 110 127 3,400 -600 Descending Toronto Center
Wed 02:49:34 PM 43.7667 -79.5000 235° Southwest 110 127 2,800 -650 Descending Toronto Center
Wed 02:50:34 PM 43.7333 -79.5333 216° Southwest 120 138 2,100 -700 Descending Toronto Center
Wed 02:51:34 PM 43.7167 -79.5667 235° Southwest 130 150 1,400 -700 Descending Toronto Center
Wed 02:52:34 PM 43.6833 -79.6167 227° Southwest 130 150 700 -450 Descending Toronto Center
Wed 02:53:34 PM 43.6667 -79.6333 216° Southwest 90 104 500 -100 Descending Toronto Center
Wed 02:54:34 PM 43.6667 -79.6333 216° Southwest 20 23 500  Level Toronto Center
Wed 02:56:34 PM 43.6833 -79.6333 360° North 30 35 500  Level Toronto Center

Login

Don't have an account? Register now (free) for customized features, flight alerts, and more!